createdAt,value
2023-03-17T00:01:41.893Z,6.09
2023-03-17T00:06:44.294Z,6.14
2023-03-17T00:11:47.413Z,5.66
2023-03-17T00:16:52.041Z,5.75
2023-03-17T00:21:55.111Z,6.09
2023-03-17T00:26:57.312Z,6.99
2023-03-17T00:31:59.961Z,7.03
2023-03-17T00:37:02.103Z,6.99
2023-03-17T00:42:04.529Z,6.74
2023-03-17T00:47:08.697Z,5.73
2023-03-17T00:52:10.967Z,5.81
2023-03-17T00:57:13.245Z,6.13
2023-03-17T01:02:15.761Z,5.79
2023-03-17T01:07:18.274Z,5.96
2023-03-17T01:12:22.470Z,5.48
2023-03-17T01:17:24.708Z,6.25
2023-03-17T01:22:27.123Z,5.92
2023-03-17T01:27:33.729Z,6.47
2023-03-17T01:32:36.034Z,6.08
2023-03-17T01:37:38.750Z,5.77
2023-03-17T01:42:44.829Z,6.07
2023-03-17T01:47:47.576Z,5.98
2023-03-17T01:52:49.714Z,6.56
2023-03-17T01:57:56.467Z,6.43
2023-03-17T02:02:59.191Z,6.07
2023-03-17T02:08:01.679Z,6.61
2023-03-17T02:13:05.908Z,6.87
2023-03-17T02:18:11.716Z,5.42
2023-03-17T02:23:22.549Z,5.51
2023-03-17T02:28:30.982Z,5.48
2023-03-17T02:33:33.462Z,5.97
2023-03-17T02:38:36.313Z,5.95
2023-03-17T02:43:38.607Z,5.77
2023-03-17T02:48:41.387Z,5.75
2023-03-17T02:53:43.731Z,5.36
2023-03-17T02:58:46.527Z,5.96
2023-03-17T03:03:48.908Z,5.00
2023-03-17T03:08:52.081Z,5.31
2023-03-17T03:13:54.386Z,4.86
2023-03-17T03:18:56.830Z,5.30
2023-03-17T03:23:59.087Z,5.62
2023-03-17T03:29:01.393Z,4.83
2023-03-17T03:34:04.225Z,5.13
2023-03-17T03:39:06.576Z,5.47
2023-03-17T03:44:08.995Z,5.69
2023-03-17T03:49:11.402Z,5.53
2023-03-17T03:54:13.630Z,5.80
2023-03-17T03:59:16.283Z,4.05
2023-03-17T04:04:18.618Z,4.18
2023-03-17T04:14:44.732Z,4.34
2023-03-17T04:19:47.174Z,4.95
2023-03-17T04:24:49.458Z,3.91
2023-03-17T04:29:51.683Z,4.38
2023-03-17T04:34:54.114Z,5.05
2023-03-17T04:39:56.424Z,5.04
2023-03-17T04:44:58.646Z,4.16
2023-03-17T04:50:01.362Z,5.06
2023-03-17T04:55:10.400Z,4.56
2023-03-17T05:00:13.324Z,4.06
2023-03-17T05:05:15.686Z,4.04
2023-03-17T05:10:18.049Z,3.91
2023-03-17T05:15:20.337Z,4.46
2023-03-17T05:20:22.547Z,4.34
2023-03-17T05:25:24.777Z,4.02
2023-03-17T05:30:27.216Z,4.23
2023-03-17T05:35:29.662Z,4.90
2023-03-17T05:40:32.708Z,4.07
2023-03-17T05:45:35.037Z,3.76
2023-03-17T05:50:37.344Z,3.87
2023-03-17T05:55:39.730Z,4.47
2023-03-17T06:00:42.711Z,4.90
2023-03-17T06:05:44.994Z,5.68
2023-03-17T06:10:48.187Z,5.08
2023-03-17T06:15:54.221Z,5.80
2023-03-17T06:20:56.712Z,7.61
2023-03-17T06:25:58.850Z,6.40
2023-03-17T06:31:01.395Z,5.69
2023-03-17T06:36:03.858Z,5.76
2023-03-17T06:41:06.299Z,6.86
2023-03-17T06:46:09.089Z,6.78
2023-03-17T06:51:11.633Z,7.38
2023-03-17T06:56:28.899Z,6.95
2023-03-17T07:01:32.301Z,6.91
2023-03-17T07:06:35.807Z,7.62
2023-03-17T07:11:38.225Z,8.53
2023-03-17T07:16:40.567Z,8.68
2023-03-17T07:21:42.864Z,9.05
2023-03-17T07:26:44.988Z,9.56
2023-03-17T07:31:47.407Z,9.29
2023-03-17T07:36:49.777Z,9.29
2023-03-17T07:41:55.147Z,8.37
2023-03-17T07:46:57.523Z,9.09
2023-03-17T07:51:59.903Z,9.27
2023-03-17T07:57:02.108Z,9.49
2023-03-17T08:02:04.740Z,10.32
2023-03-17T08:07:06.976Z,10.12
2023-03-17T08:12:10.059Z,9.92
2023-03-17T08:17:12.342Z,10.39
2023-03-17T08:22:14.583Z,10.76
2023-03-17T08:27:18.843Z,10.92
2023-03-17T08:32:20.945Z,11.30
2023-03-17T08:37:24.658Z,11.35
2023-03-17T08:42:26.935Z,11.53
2023-03-17T08:47:29.765Z,11.91
2023-03-17T08:52:32.650Z,11.72
2023-03-17T08:57:35.895Z,12.24
2023-03-17T09:02:39.202Z,12.32
2023-03-17T09:07:42.641Z,13.03
2023-03-17T09:12:44.910Z,13.05
2023-03-17T09:17:47.171Z,13.42
2023-03-17T09:22:49.580Z,14.15
2023-03-17T09:27:52.044Z,14.23
2023-03-17T09:32:54.914Z,14.53
2023-03-17T09:37:57.599Z,13.51
2023-03-17T09:43:38.715Z,13.69
2023-03-17T09:49:07.622Z,14.61
2023-03-17T09:54:33.717Z,15.24
2023-03-17T09:59:44.789Z,15.81
2023-03-17T10:04:48.832Z,15.76
2023-03-17T10:10:03.491Z,15.19
2023-03-17T10:15:30.560Z,16.16
2023-03-17T10:20:36.487Z,15.69
2023-03-17T10:25:39.589Z,15.25
2023-03-17T10:30:41.742Z,15.95
2023-03-17T10:35:45.102Z,16.07
2023-03-17T10:40:58.074Z,16.34
2023-03-17T10:46:04.092Z,16.99
2023-03-17T10:51:09.949Z,16.44
2023-03-17T10:56:26.816Z,17.69
2023-03-17T11:01:35.855Z,16.93
2023-03-17T11:06:43.904Z,17.63
2023-03-17T11:12:06.494Z,17.04
2023-03-17T11:17:21.398Z,17.95
2023-03-17T11:22:38.254Z,17.64
2023-03-17T11:28:19.214Z,18.98
2023-03-17T11:33:36.531Z,19.04
2023-03-17T11:39:23.243Z,18.77
2023-03-17T11:44:59.843Z,19.27
2023-03-17T11:50:49.556Z,19.47
2023-03-17T11:56:05.430Z,19.08
2023-03-17T12:01:12.990Z,19.19
2023-03-17T12:06:36.745Z,19.62
2023-03-17T12:11:44.567Z,19.59
2023-03-17T12:17:02.520Z,19.51
2023-03-17T12:22:13.606Z,19.69
2023-03-17T12:27:30.248Z,19.53
2023-03-17T12:32:45.862Z,19.55
2023-03-17T12:37:49.720Z,20.63
2023-03-17T12:43:39.057Z,21.28
2023-03-17T12:49:11.013Z,20.79
2023-03-17T12:54:21.496Z,20.71
2023-03-17T12:59:26.348Z,20.48
2023-03-17T13:04:36.202Z,21.50
2023-03-17T13:09:49.711Z,21.30
2023-03-17T13:14:52.334Z,21.08
2023-03-17T13:20:10.472Z,21.52
2023-03-17T13:25:34.929Z,21.59
2023-03-17T13:30:37.098Z,21.94
2023-03-17T13:36:05.939Z,21.65
2023-03-17T13:41:50.310Z,21.07
2023-03-17T13:46:52.887Z,20.81
2023-03-17T13:52:17.688Z,21.08
2023-03-17T13:57:39.962Z,20.62
2023-03-17T14:02:44.659Z,20.76
2023-03-17T14:08:01.126Z,20.31
2023-03-17T14:13:24.783Z,20.47
2023-03-17T14:18:37.780Z,20.39
2023-03-17T14:23:39.975Z,20.54
2023-03-17T14:28:42.120Z,20.33
2023-03-17T14:33:44.418Z,20.52
2023-03-17T14:38:53.421Z,19.86
2023-03-17T14:44:01.000Z,19.89
2023-03-17T14:49:13.395Z,19.67
2023-03-17T14:54:31.420Z,19.74
2023-03-17T14:59:36.197Z,19.97
2023-03-17T15:04:53.547Z,19.89
2023-03-17T15:10:02.169Z,19.31
2023-03-17T15:15:16.961Z,19.54
2023-03-17T15:20:20.230Z,19.42
2023-03-17T15:25:39.740Z,19.02
2023-03-17T15:30:48.224Z,18.85
2023-03-17T15:35:51.591Z,18.74
2023-03-17T15:40:54.717Z,18.82
2023-03-17T15:46:07.669Z,19.30
2023-03-17T15:51:11.715Z,19.06
2023-03-17T15:56:20.318Z,19.05
2023-03-17T16:01:22.708Z,18.82
2023-03-17T16:06:25.044Z,19.04
2023-03-17T16:11:31.444Z,18.86
2023-03-17T16:16:42.369Z,19.25
2023-03-17T16:21:44.532Z,19.29
2023-03-17T16:26:46.659Z,18.58
2023-03-17T16:31:56.891Z,18.29
2023-03-17T16:36:59.107Z,18.09
2023-03-17T16:42:01.822Z,18.19
2023-03-17T16:47:04.223Z,18.12
2023-03-17T16:52:06.505Z,18.37
2023-03-17T16:57:12.982Z,17.56
2023-03-17T17:02:16.877Z,17.74
2023-03-17T17:07:18.975Z,17.91
2023-03-17T17:12:21.169Z,17.91
2023-03-17T17:17:23.357Z,17.51
2023-03-17T17:22:25.526Z,17.58
2023-03-17T17:27:27.646Z,17.50
2023-03-17T17:32:29.995Z,17.21
2023-03-17T17:37:32.449Z,17.39
2023-03-17T17:42:35.866Z,17.24
2023-03-17T17:47:38.179Z,16.60
2023-03-17T17:52:40.387Z,16.37
2023-03-17T17:57:42.552Z,16.65
2023-03-17T18:02:45.500Z,16.63
2023-03-17T18:07:47.632Z,16.65
2023-03-17T18:12:49.774Z,15.80
2023-03-17T18:17:52.241Z,15.35
2023-03-17T18:22:54.561Z,15.92
2023-03-17T18:27:57.416Z,16.16
2023-03-17T18:33:09.675Z,15.74
2023-03-17T18:38:11.992Z,15.93
2023-03-17T18:43:14.186Z,15.76
2023-03-17T18:48:16.562Z,15.08
2023-03-17T18:53:18.789Z,15.21
2023-03-17T18:58:20.925Z,14.77
2023-03-17T19:03:23.452Z,15.79
2023-03-17T19:08:25.810Z,15.67
2023-03-17T19:13:27.896Z,15.06
2023-03-17T19:18:30.250Z,15.25
2023-03-17T19:23:33.541Z,15.22
2023-03-17T19:28:35.742Z,15.33
2023-03-17T19:33:38.048Z,15.52
2023-03-17T19:38:41.230Z,15.11
2023-03-17T19:43:43.533Z,15.29
2023-03-17T19:48:45.615Z,15.37
2023-03-17T19:53:47.729Z,15.22
2023-03-17T19:58:51.152Z,14.98
2023-03-17T20:03:53.277Z,14.98
2023-03-17T20:08:55.449Z,14.96
2023-03-17T20:13:57.573Z,14.68
2023-03-17T20:19:01.319Z,14.67
2023-03-17T20:24:03.936Z,14.92
2023-03-17T20:29:06.570Z,14.72
2023-03-17T20:34:10.128Z,14.58
2023-03-17T20:39:14.929Z,14.83
2023-03-17T20:44:18.117Z,14.79
2023-03-17T20:49:21.006Z,15.23
2023-03-17T20:54:25.802Z,15.07
2023-03-17T20:59:28.203Z,14.82
2023-03-17T21:04:30.596Z,14.79
2023-03-17T21:09:32.885Z,15.05
2023-03-17T21:14:35.115Z,14.79
2023-03-17T21:19:38.213Z,14.57
2023-03-17T21:24:40.602Z,14.67
2023-03-17T21:29:42.844Z,14.52
2023-03-17T21:34:45.487Z,14.55
2023-03-17T21:39:47.778Z,14.85
2023-03-17T21:44:52.007Z,14.59
2023-03-17T21:49:54.430Z,14.42
2023-03-17T21:54:57.332Z,14.49
2023-03-17T21:59:59.576Z,14.29
2023-03-17T22:05:02.731Z,13.40
2023-03-17T22:10:07.388Z,13.65
2023-03-17T22:15:10.436Z,13.66
2023-03-17T22:20:12.628Z,14.02
2023-03-17T22:25:14.819Z,14.13
2023-03-17T22:30:17.340Z,14.12
2023-03-17T22:35:21.017Z,14.34
2023-03-17T22:40:23.390Z,14.56
2023-03-17T22:45:26.542Z,14.32
2023-03-17T22:50:28.965Z,14.58
2023-03-17T22:55:31.416Z,14.17
2023-03-17T23:00:33.808Z,14.08
2023-03-17T23:05:36.036Z,13.83
2023-03-17T23:10:40.081Z,13.65
2023-03-17T23:15:42.522Z,13.73
2023-03-17T23:20:45.907Z,13.42
2023-03-17T23:25:48.214Z,13.70
2023-03-17T23:30:51.227Z,13.38
2023-03-17T23:35:53.784Z,13.71
2023-03-17T23:40:57.860Z,13.72
2023-03-17T23:46:01.057Z,13.56
2023-03-17T23:51:03.484Z,14.11
2023-03-17T23:56:07.830Z,14.18
